Cruise inventory

RRS Charles Darwin CD22

Cruise summary report

Cruise Info. 
Ship name (ship code)RRS Charles Darwin (74AB)
Cruise identifierCD22
Cruise period1987-04-13 — 1987-05-07
StatusCompleted
Port of departurePort Louis, Mauritius
Port of returnVictoria, Seychelles
ObjectivesPhysical oceanography. GR 35549 NERC
Chief scientistJohn H Simpson (University of Wales, Bangor School of Ocean Sciences)
Ocean/sea areas 
GeneralIndian Ocean
SpecificW. Indian Ocean
Measurements 
Physical oceanography 
Surface measurements underway (T,S)
CTD stationsQuantity: number of stations = 200
Transparency (eg transmissometer)Quantity: number of stations = 10
Current metersQuantity: number of stations = 4
Description: moorings (18 current meters) deployed for recovery on CD 24
Current profiler (eg ADCP)Description: ADCP
Chemical oceanography 
NitrateQuantity: number of samples = 500
SilicateQuantity: number of samples = 500
Data held at BODC 
Series/Profiles 
131  CTD/STD cast
Transmittance and attenuance of the water column
Vertical spatial coordinates
Salinity of the water column
Temperature of the water column
Transmittance and attenuance of the water column
Vertical spatial coordinates
Salinity of the water column
Temperature of the water column

BODC idDate/TimeLocationDoc.
3520061987-05-03 04:30  — 1987-05-03 04:55 9° 39' 13" S  47° 36' 40" E  View metadata report for BODC series reference number 352006
3520181987-05-03 05:51  — 1987-05-03 06:26 9° 41' 10" S  47° 39' 4" E  View metadata report for BODC series reference number 352018
3520311987-05-03 07:25  — 1987-05-03 07:47 9° 44' 52" S  47° 40' 20" E  View metadata report for BODC series reference number 352031
3520431987-05-03 08:28  — 1987-05-03 08:56 9° 47' 54" S  47° 39' 10" E  View metadata report for BODC series reference number 352043
3520551987-05-03 09:25  — 1987-05-03 09:48 9° 47' 58" S  47° 35' 45" E  View metadata report for BODC series reference number 352055
3520671987-05-03 10:13  — 1987-05-03 10:37 9° 47' 5" S  47° 33' 10" E  View metadata report for BODC series reference number 352067
3520791987-05-03 11:03  — 1987-05-03 11:31 9° 45' 43" S  47° 30' 50" E  View metadata report for BODC series reference number 352079
3519671987-05-02 16:41  — 1987-05-02 17:07 9° 32' 54" S  46° 47' 23" E  View metadata report for BODC series reference number 351967
3519791987-05-02 17:52  — 1987-05-02 18:26 9° 34' 1" S  46° 51' 49" E  View metadata report for BODC series reference number 351979
3519801987-05-03 01:55  — 1987-05-03 02:19 9° 40' 59" S  47° 31' 43" E  View metadata report for BODC series reference number 351980
3519921987-05-03 03:04  — 1987-05-03 03:34 9° 38' 40" S  47° 34' 4" E  View metadata report for BODC series reference number 351992
3514081987-04-25 18:35  — 1987-04-25 19:59 9° 15' 18" S  45° 58' 19" E  View metadata report for BODC series reference number 351408
3514211987-04-27 04:19  — 1987-04-27 04:45 9° 20' 43" S  46° 6' 13" E  View metadata report for BODC series reference number 351421
3514331987-04-27 05:40  — 1987-04-27 06:06 9° 24' 17" S  46° 4' 33" E  View metadata report for BODC series reference number 351433
3514451987-04-27 06:58  — 1987-04-27 07:25 9° 24' 37" S  46° 9' 45" E  View metadata report for BODC series reference number 351445
3514571987-04-27 08:42  — 1987-04-27 09:11 9° 22' 7" S  46° 10' 38" E  View metadata report for BODC series reference number 351457
3514691987-04-27 10:37  — 1987-04-27 11:15 9° 20' 2" S  46° 12' 10" E  View metadata report for BODC series reference number 351469
3514701987-04-27 11:43  — 1987-04-27 12:11 9° 19' 37" S  46° 15' 2" E  View metadata report for BODC series reference number 351470
3514821987-04-27 12:44  — 1987-04-27 13:11 9° 19' 7" S  46° 17' 24" E  View metadata report for BODC series reference number 351482
3514941987-04-27 13:35  — 1987-04-27 13:56 9° 19' 6" S  46° 19' 42" E  View metadata report for BODC series reference number 351494
3515011987-04-27 14:49  — 1987-04-27 15:09 9° 12' 52" S  46° 20' 32" E  View metadata report for BODC series reference number 351501
3515131987-04-27 15:56  — 1987-04-27 16:16 9° 13' 18" S  46° 14' 52" E  View metadata report for BODC series reference number 351513
3515251987-04-27 17:00  — 1987-04-27 17:19 9° 15' 12" S  46° 11' 30" E  View metadata report for BODC series reference number 351525
3515371987-04-27 18:03  — 1987-04-27 18:23 9° 17' 10" S  46° 7' 30" E  View metadata report for BODC series reference number 351537
3515491987-04-27 19:16  — 1987-04-27 19:41 9° 14' 52" S  46° 3' 17" E  View metadata report for BODC series reference number 351549
3515501987-04-27 21:58  — 1987-04-27 22:40 9° 17' 49" S  46° 7' 38" E  View metadata report for BODC series reference number 351550
3515621987-04-27 23:41  — 1987-04-27 23:53 9° 18' 19" S  46° 7' 36" E  View metadata report for BODC series reference number 351562
3515741987-04-28 05:15  — 1987-04-28 06:12 9° 18' 51" S  46° 5' 35" E  View metadata report for BODC series reference number 351574
3515861987-04-28 08:48  — 1987-04-28 09:00 9° 18' 9" S  46° 3' 22" E  View metadata report for BODC series reference number 351586
3515981987-04-28 11:32  — 1987-04-28 12:00 9° 15' 44" S  46° 3' 16" E  View metadata report for BODC series reference number 351598
3516051987-04-28 14:05  — 1987-04-28 14:27 9° 13' 4" S  46° 3' 29" E  View metadata report for BODC series reference number 351605
3516171987-04-28 17:04  — 1987-04-28 17:56 9° 10' 7" S  46° 3' 35" E  View metadata report for BODC series reference number 351617
3516291987-04-28 18:54  — 1987-04-28 19:20 9° 9' 18" S  46° 3' 49" E  View metadata report for BODC series reference number 351629
3516301987-04-28 20:03  — 1987-04-28 20:25 9° 8' 46" S  46° 4' 3" E  View metadata report for BODC series reference number 351630
3516421987-04-28 22:34  — 1987-04-28 22:54 9° 7' 10" S  46° 4' 22" E  View metadata report for BODC series reference number 351642
3516541987-04-29 02:24  — 1987-04-29 02:44 9° 5' 4" S  46° 4' 31" E  View metadata report for BODC series reference number 351654
3516661987-04-29 06:50  — 1987-04-29 07:16 9° 14' 49" S  45° 58' 52" E  View metadata report for BODC series reference number 351666
3516781987-04-29 22:11  — 1987-04-29 22:22 9° 14' 17" S  46° 0' 10" E  View metadata report for BODC series reference number 351678
3516911987-04-29 03:28 9° 14' 5" S  45° 59' 46" E  View metadata report for BODC series reference number 351691
3517091987-04-30 03:03  — 1987-04-30 03:20 9° 13' 20" S  45° 58' 6" E  View metadata report for BODC series reference number 351709
3517101987-04-30 06:28  — 1987-04-30 06:40 9° 12' 51" S  45° 56' 16" E  View metadata report for BODC series reference number 351710
3517221987-04-30 09:33  — 1987-04-30 09:53 9° 10' 40" S  45° 55' 14" E  View metadata report for BODC series reference number 351722
3517341987-05-01 02:17  — 1987-05-01 02:32 9° 10' 48" S  45° 46' 21" E  View metadata report for BODC series reference number 351734
3517461987-05-01 04:20  — 1987-05-01 04:50 9° 19' 7" S  45° 59' 46" E  View metadata report for BODC series reference number 351746
3517581987-05-01 06:16  — 1987-05-01 06:53 9° 12' 6" S  45° 51' 10" E  View metadata report for BODC series reference number 351758
3517711987-05-01 07:33  — 1987-05-01 08:03 9° 11' 22" S  45° 48' 28" E  View metadata report for BODC series reference number 351771
3517831987-05-01 09:33  — 1987-05-01 10:03 9° 9' 19" S  45° 42' 53" E  View metadata report for BODC series reference number 351783
3517951987-05-01 10:43  — 1987-05-01 11:15 9° 8' 35" S  45° 38' 54" E  View metadata report for BODC series reference number 351795
3518021987-05-01 12:02  — 1987-05-01 12:47 9° 5' 28" S  45° 35' 12" E  View metadata report for BODC series reference number 351802
3518141987-05-01 13:30  — 1987-05-01 13:54 9° 3' 33" S  45° 30' 20" E  View metadata report for BODC series reference number 351814
3518261987-05-01 14:49  — 1987-05-01 15:11 9° 1' 18" S  45° 25' 21" E  View metadata report for BODC series reference number 351826
3518381987-05-01 15:57  — 1987-05-01 16:20 8° 59' 9" S  45° 21' 35" E  View metadata report for BODC series reference number 351838
3518511987-05-02 02:59  — 1987-05-02 03:32 9° 21' 13" S  46° 7' 17" E  View metadata report for BODC series reference number 351851
3518631987-05-02 04:22  — 1987-05-02 04:58 9° 23' 21" S  46° 10' 53" E  View metadata report for BODC series reference number 351863
3518751987-05-02 05:49  — 1987-05-02 06:24 9° 20' 45" S  46° 14' 27" E  View metadata report for BODC series reference number 351875
3518871987-05-02 07:10  — 1987-05-02 07:29 9° 20' 50" S  46° 19' 23" E  View metadata report for BODC series reference number 351887
3518991987-05-02 09:06  — 1987-05-02 09:36 9° 20' 33" S  46° 23' 59" E  View metadata report for BODC series reference number 351899
3519061987-05-02 10:20  — 1987-05-02 10:46 9° 20' 51" S  46° 27' 41" E  View metadata report for BODC series reference number 351906
3519181987-05-02 11:35  — 1987-05-02 12:09 9° 23' 41" S  46° 32' 22" E  View metadata report for BODC series reference number 351918
3519311987-05-02 12:55  — 1987-05-02 13:15 9° 27' 47" S  46° 32' 42" E  View metadata report for BODC series reference number 351931
3519431987-05-02 14:07  — 1987-05-02 14:32 9° 29' 26" S  46° 37' 14" E  View metadata report for BODC series reference number 351943
3519551987-05-02 15:26  — 1987-05-02 15:51 9° 31' 47" S  46° 42' 39" E  View metadata report for BODC series reference number 351955
3513651987-04-23 14:47  — 1987-04-23 15:07 9° 48' 43" S  47° 32' 21" E  View metadata report for BODC series reference number 351365
3513771987-04-23 15:53  — 1987-04-23 16:14 9° 45' 53" S  47° 27' 32" E  View metadata report for BODC series reference number 351377
3513891987-04-23 23:47  — 1987-04-24 01:06 9° 26' 39" S  47° 3' 25" E  View metadata report for BODC series reference number 351389
3513901987-04-25 13:28  — 1987-04-25 14:39 8° 58' 29" S  45° 27' 31" E  View metadata report for BODC series reference number 351390
3507921987-04-19 04:52  — 1987-04-19 05:17 9° 32' 5" S  46° 33' 34" E  View metadata report for BODC series reference number 350792
3508111987-04-19 06:28  — 1987-04-19 06:53 9° 34' 32" S  46° 27' 6" E  View metadata report for BODC series reference number 350811
3508231987-04-19 07:52  — 1987-04-19 08:26 9° 35' 47" S  46° 20' 7" E  View metadata report for BODC series reference number 350823
3508351987-04-19 09:16  — 1987-04-19 13:56 9° 35' 34" S  46° 11' 53" E  View metadata report for BODC series reference number 350835
3508471987-04-19 14:50  — 1987-04-19 15:30 9° 31' 9" S  46° 5' 42" E  View metadata report for BODC series reference number 350847
3508591987-04-19 16:32  — 1987-04-19 17:02 9° 24' 31" S  46° 4' 45" E  View metadata report for BODC series reference number 350859
3508601987-04-19 18:08  — 1987-04-19 19:40 9° 16' 27" S  46° 7' 48" E  View metadata report for BODC series reference number 350860
3508721987-04-19 20:43  — 1987-04-19 21:09 9° 14' 26" S  46° 14' 40" E  View metadata report for BODC series reference number 350872
3508841987-04-19 22:23  — 1987-04-19 22:55 9° 14' 9" S  46° 22' 54" E  View metadata report for BODC series reference number 350884
3508961987-04-19 23:53  — 1987-04-20 00:20 9° 15' 1" S  46° 29' 20" E  View metadata report for BODC series reference number 350896
3509031987-04-20 01:39  — 1987-04-20 02:05 9° 19' 7" S  46° 35' 52" E  View metadata report for BODC series reference number 350903
3509151987-04-20 04:13  — 1987-04-20 04:45 9° 23' 1" S  46° 40' 46" E  View metadata report for BODC series reference number 350915
3509271987-04-20 05:38  — 1987-04-20 06:11 9° 28' 14" S  46° 38' 25" E  View metadata report for BODC series reference number 350927
3509391987-04-20 20:05  — 1987-04-20 20:26 9° 28' 7" S  45° 46' 9" E  View metadata report for BODC series reference number 350939
3509401987-04-20 21:06  — 1987-04-20 21:32 9° 28' 4" S  45° 48' 40" E  View metadata report for BODC series reference number 350940
3509521987-04-20 22:26  — 1987-04-20 22:56 9° 22' 33" S  45° 50' 35" E  View metadata report for BODC series reference number 350952
3509641987-04-20 23:53  — 1987-04-21 00:45 9° 17' 40" S  45° 51' 48" E  View metadata report for BODC series reference number 350964
3509761987-04-21 03:06  — 1987-04-21 03:51 9° 12' 31" S  45° 54' 51" E  View metadata report for BODC series reference number 350976
3509881987-04-21 04:43  — 1987-04-21 05:12 9° 8' 33" S  45° 55' 49" E  View metadata report for BODC series reference number 350988
3510031987-04-21 06:04  — 1987-04-21 06:35 9° 4' 10" S  45° 58' 38" E  View metadata report for BODC series reference number 351003
3510151987-04-21 07:28  — 1987-04-21 07:59 8° 59' 25" S  46° 0' 55" E  View metadata report for BODC series reference number 351015
3510271987-04-21 10:00  — 1987-04-21 10:40 8° 54' 58" S  46° 3' 4" E  View metadata report for BODC series reference number 351027
3510391987-04-21 11:27  — 1987-04-21 11:54 8° 51' 6" S  46° 4' 46" E  View metadata report for BODC series reference number 351039
3510401987-04-21 19:22  — 1987-04-21 19:45 9° 12' 17" S  46° 31' 13" E  View metadata report for BODC series reference number 351040
3510521987-04-21 21:28  — 1987-04-21 21:54 9° 19' 50" S  46° 36' 43" E  View metadata report for BODC series reference number 351052
3510641987-04-21 22:41  — 1987-04-21 23:04 9° 21' 45" S  46° 31' 41" E  View metadata report for BODC series reference number 351064
3510761987-04-21 23:50  — 1987-04-22 00:13 9° 19' 32" S  46° 27' 20" E  View metadata report for BODC series reference number 351076
3510881987-04-22 01:06  — 1987-04-22 01:33 9° 18' 59" S  46° 23' 3" E  View metadata report for BODC series reference number 351088
3511071987-04-22 02:34  — 1987-04-22 03:17 9° 19' 10" S  46° 17' 9" E  View metadata report for BODC series reference number 351107
3511191987-04-22 05:21  — 1987-04-22 05:44 9° 20' 35" S  46° 12' 0" E  View metadata report for BODC series reference number 351119
3511201987-04-22 06:32  — 1987-04-22 07:00 9° 24' 4" S  46° 10' 16" E  View metadata report for BODC series reference number 351120
3511321987-04-22 07:45  — 1987-04-22 08:04 9° 28' 58" S  46° 10' 40" E  View metadata report for BODC series reference number 351132
3511441987-04-22 08:50  — 1987-04-22 09:16 9° 31' 30" S  46° 14' 51" E  View metadata report for BODC series reference number 351144
3511561987-04-22 10:32  — 1987-04-22 10:54 9° 31' 18" S  46° 20' 34" E  View metadata report for BODC series reference number 351156
3511681987-04-22 11:34  — 1987-04-22 11:50 9° 30' 16" S  46° 24' 54" E  View metadata report for BODC series reference number 351168
3511811987-04-22 12:38  — 1987-04-22 12:59 9° 28' 14" S  46° 29' 46" E  View metadata report for BODC series reference number 351181
3511931987-04-22 13:43  — 1987-04-22 14:00 9° 27' 23" S  46° 33' 19" E  View metadata report for BODC series reference number 351193
3512001987-04-22 14:48  — 1987-04-22 15:08 9° 24' 19" S  46° 35' 37" E  View metadata report for BODC series reference number 351200
3512121987-04-22 16:08  — 1987-04-22 16:26 9° 22' 0" S  46° 42' 2" E  View metadata report for BODC series reference number 351212
3512241987-04-22 17:33  — 1987-04-22 17:58 9° 20' 59" S  46° 49' 40" E  View metadata report for BODC series reference number 351224
3512361987-04-22 19:06  — 1987-04-22 19:25 9° 18' 39" S  46° 55' 55" E  View metadata report for BODC series reference number 351236
3512481987-04-22 20:40  — 1987-04-22 21:01 9° 27' 42" S  46° 58' 36" E  View metadata report for BODC series reference number 351248
3512611987-04-22 22:30  — 1987-04-22 22:51 9° 30' 25" S  47° 9' 21" E  View metadata report for BODC series reference number 351261
3512731987-04-23 00:13  — 1987-04-23 00:38 9° 35' 1" S  47° 17' 43" E  View metadata report for BODC series reference number 351273
3512851987-04-23 03:23  — 1987-04-23 03:43 9° 39' 28" S  47° 29' 4" E  View metadata report for BODC series reference number 351285
3512971987-04-23 04:29  — 1987-04-23 04:48 9° 37' 10" S  47° 33' 13" E  View metadata report for BODC series reference number 351297
3513041987-04-23 06:00  — 1987-04-23 06:22 9° 38' 30" S  47° 38' 40" E  View metadata report for BODC series reference number 351304
3513161987-04-23 07:31  — 1987-04-23 07:48 9° 43' 24" S  47° 43' 56" E  View metadata report for BODC series reference number 351316
3513281987-04-23 09:16  — 1987-04-23 09:52 9° 43' 39" S  47° 51' 42" E  View metadata report for BODC series reference number 351328
3513411987-04-23 12:14  — 1987-04-23 12:38 9° 49' 23" S  47° 43' 40" E  View metadata report for BODC series reference number 351341
3513531987-04-23 13:37  — 1987-04-23 14:00 9° 51' 13" S  47° 37' 5" E  View metadata report for BODC series reference number 351353
3507551987-04-18 22:30  — 1987-04-18 23:09 9° 21' 48" S  46° 31' 9" E  View metadata report for BODC series reference number 350755
3507671987-04-19 00:04  — 1987-04-19 00:43 9° 24' 48" S  46° 35' 24" E  View metadata report for BODC series reference number 350767
3507791987-04-19 01:25  — 1987-04-19 02:22 9° 27' 27" S  46° 33' 29" E  View metadata report for BODC series reference number 350779
3507801987-04-19 03:13  — 1987-04-19 03:56 9° 31' 57" S  46° 33' 42" E  View metadata report for BODC series reference number 350780
3506381987-04-18 00:40  — 1987-04-18 01:37 9° 29' 24" S  46° 29' 55" E  View metadata report for BODC series reference number 350638
3506511987-04-18 03:02  — 1987-04-18 03:35 9° 30' 0" S  46° 24' 47" E  View metadata report for BODC series reference number 350651
3506631987-04-18 04:19  — 1987-04-18 04:59 9° 30' 57" S  46° 20' 6" E  View metadata report for BODC series reference number 350663
3506751987-04-18 05:38  — 1987-04-18 06:17 9° 31' 25" S  46° 14' 43" E  View metadata report for BODC series reference number 350675
3506871987-04-18 07:04  — 1987-04-18 07:36 9° 28' 48" S  46° 10' 41" E  View metadata report for BODC series reference number 350687
3506991987-04-18 11:33  — 1987-04-18 12:14 9° 23' 34" S  46° 9' 7" E  View metadata report for BODC series reference number 350699
3507061987-04-18 15:32  — 1987-04-18 15:52 9° 20' 4" S  46° 11' 37" E  View metadata report for BODC series reference number 350706
3507181987-04-18 17:35  — 1987-04-18 18:02 9° 18' 31" S  46° 17' 12" E  View metadata report for BODC series reference number 350718
3507311987-04-18 18:59  — 1987-04-18 19:30 9° 18' 1" S  46° 21' 35" E  View metadata report for BODC series reference number 350731
3507431987-04-18 20:50  — 1987-04-18 21:26 9° 18' 53" S  46° 26' 33" E  View metadata report for BODC series reference number 350743